Terminal Aerodrome Forecast
Issued by NWS

Current Version | Previous Version | Text Only | Print | Product List | Glossary Off
Versions: 1 2 3 4 5 6 7 8 9 10 11 12 13 14 15 16 17 18 19 20 21

000
FTUS41 KILN 232328
TAFLUK
TAF
KLUK 232328Z 2400/2424 24012KT P6SM VCSH OVC025
      TEMPO 2401/2403 5SM -SHRA OVC012
     FM240400 26010KT P6SM VCSH BKN045
     FM240900 21010KT P6SM -SHRA OVC015
     FM241300 24010KT P6SM BKN025
     FM241600 24014G24KT P6SM BKN040=

USA.gov is the U.S. government's official web portal to all federal, state and local government web resources and services.